createdAt,value
2019-04-26T00:07:19.828Z,0.4
2019-04-26T00:08:21.089Z,0.4
2019-04-26T00:09:21.103Z,0.4
2019-04-26T00:10:21.355Z,0.4
2019-04-26T00:11:21.389Z,0.4
2019-04-26T00:12:21.735Z,0.4
2019-04-26T00:13:21.511Z,0.5
2019-04-26T00:14:21.581Z,0.5
2019-04-26T00:15:21.821Z,0.6
2019-04-26T00:17:21.231Z,0.3
2019-04-26T00:19:21.239Z,0.4
2019-04-26T00:21:21.627Z,0.6
2019-04-26T00:23:21.435Z,0.4
2019-04-26T00:25:21.831Z,0.4
2019-04-26T01:37:29.952Z,0.4
2019-04-26T01:38:30.891Z,0.5
2019-04-26T01:39:31.057Z,0.4
2019-04-26T01:40:31.406Z,0.5
2019-04-26T01:41:31.524Z,0.3
2019-04-26T01:42:31.716Z,0.3
2019-04-26T01:43:31.798Z,0.4
2019-04-26T01:45:31.021Z,0.4
2019-04-26T01:47:31.614Z,0.5
2019-04-26T01:49:31.464Z,0.3
2019-04-26T01:51:31.841Z,0.5
2019-04-26T01:53:31.941Z,0.4
2019-04-26T03:06:41.032Z,0.4
2019-04-26T03:07:41.283Z,0.3
2019-04-26T03:08:41.346Z,0.5
2019-04-26T03:09:41.551Z,0.4
2019-04-26T03:10:41.854Z,0.4
2019-04-26T03:11:41.709Z,0.4
2019-04-26T03:12:41.845Z,0.5
2019-04-26T03:13:42.041Z,0.4
2019-04-26T03:15:41.336Z,0.4
2019-04-26T03:17:41.704Z,0.4
2019-04-26T03:19:41.575Z,0.3
2019-04-26T03:21:41.784Z,0.3
2019-04-26T04:32:50.363Z,0.4
2019-04-26T04:33:51.017Z,0.4
2019-04-26T04:34:51.259Z,0.5
2019-04-26T04:35:51.179Z,0.4
2019-04-26T04:36:51.838Z,0.4
2019-04-26T04:38:03.822Z,0.4
2019-04-26T04:38:51.936Z,0.5
2019-04-26T04:39:51.741Z,0.5
2019-04-26T04:40:51.875Z,0.4
2019-04-26T04:41:51.934Z,0.5
2019-04-26T04:43:51.690Z,0.4
2019-04-26T04:45:51.622Z,0.3
2019-04-26T05:45:00.147Z,1.2
2019-04-26T05:46:01.201Z,1.5
2019-04-26T05:48:07.905Z,1.2
2019-04-26T05:49:01.055Z,1
2019-04-26T05:50:01.141Z,1
2019-04-26T05:51:01.039Z,1.1
2019-04-26T05:52:00.991Z,1.2
2019-04-26T05:54:00.337Z,1
2019-04-26T05:55:01.567Z,1.2
2019-04-26T05:56:01.304Z,0.9
2019-04-26T05:57:01.486Z,1.3
2019-04-26T05:58:01.672Z,1.2
2019-04-26T05:59:01.909Z,1.2
2019-04-26T06:01:00.895Z,1.3
2019-04-26T06:04:01.608Z,1.2
2019-04-26T06:06:04.136Z,1.2
2019-04-26T06:08:01.886Z,1.4
2019-04-26T06:10:01.844Z,1.4
2019-04-26T06:13:01.907Z,1.2
2019-04-26T06:33:14.104Z,1.2
2019-04-26T06:50:13.870Z,1.2
2019-04-26T06:51:22.273Z,1.1
2019-04-26T06:53:10.130Z,1.2
2019-04-26T06:57:14.012Z,0.9
2019-04-26T06:58:11.901Z,1.2
2019-04-26T07:04:14.809Z,1.1
2019-04-26T07:05:10.816Z,1
2019-04-26T07:06:11.007Z,1.1
2019-04-26T07:08:20.053Z,1
2019-04-26T07:11:10.598Z,1
2019-04-26T07:12:10.568Z,1
2019-04-26T07:14:10.415Z,1
2019-04-26T07:15:11.030Z,1
2019-04-26T07:17:11.043Z,1.1
2019-04-26T07:20:10.612Z,1
2019-04-26T07:23:11.567Z,0.9
2019-04-26T07:26:12.619Z,0.9
2019-04-26T07:31:11.913Z,1
2019-04-26T07:33:11.537Z,1.1
2019-04-26T07:35:11.904Z,1.1
2019-04-26T08:22:23.391Z,1.1
2019-04-26T08:24:20.342Z,1.2
2019-04-26T08:31:26.175Z,1.2
2019-04-26T08:39:23.329Z,1
2019-04-26T08:41:19.960Z,1.1
2019-04-26T08:42:23.694Z,0.9
2019-04-26T08:44:20.371Z,0.8
2019-04-26T08:47:24.806Z,1.1
2019-04-26T08:48:22.291Z,1.1
2019-04-26T08:49:22.892Z,1.3
2019-04-26T08:50:21.178Z,0.9
